createdAt,value
2022-09-03T00:00:39.922Z,18.40
2022-09-03T00:03:18.375Z,18.40
2022-09-03T00:05:55.142Z,18.40
2022-09-03T00:08:42.163Z,18.40
2022-09-03T00:11:27.675Z,18.30
2022-09-03T00:14:12.340Z,18.30
2022-09-03T00:16:56.514Z,18.30
2022-09-03T00:19:30.619Z,18.30
2022-09-03T00:22:20.994Z,18.30
2022-09-03T00:24:50.160Z,18.20
2022-09-03T00:27:23.742Z,18.20
2022-09-03T00:30:09.642Z,18.20
2022-09-03T00:32:58.783Z,18.10
2022-09-03T00:35:32.577Z,18.10
2022-09-03T00:38:00.526Z,18.10
2022-09-03T00:40:56.725Z,18.00
2022-09-03T00:43:52.525Z,18.00
2022-09-03T00:46:56.444Z,18.00
2022-09-03T00:50:00.287Z,18.00
2022-09-03T00:52:55.579Z,18.00
2022-09-03T00:55:55.022Z,17.90
2022-09-03T00:58:47.362Z,17.90
2022-09-03T01:01:46.014Z,17.90
2022-09-03T01:04:47.743Z,17.90
2022-09-03T01:07:35.579Z,17.80
2022-09-03T01:10:32.264Z,17.80
2022-09-03T01:13:19.904Z,17.80
2022-09-03T01:16:32.207Z,17.80
2022-09-03T01:19:45.113Z,17.70
2022-09-03T01:22:51.751Z,17.70
2022-09-03T01:25:47.609Z,17.70
2022-09-03T01:29:01.960Z,17.70
2022-09-03T01:32:15.279Z,17.60
2022-09-03T01:35:17.381Z,17.60
2022-09-03T01:38:30.103Z,17.60
2022-09-03T01:42:05.329Z,17.60
2022-09-03T01:45:07.536Z,17.50
2022-09-03T01:47:54.578Z,17.50
2022-09-03T01:50:39.767Z,17.40
2022-09-03T01:53:32.508Z,17.40
2022-09-03T01:56:32.910Z,17.40
2022-09-03T01:59:20.026Z,17.40
2022-09-03T02:02:06.360Z,17.30
2022-09-03T02:04:34.001Z,17.30
2022-09-03T02:07:01.897Z,17.30
2022-09-03T02:09:32.863Z,17.20
2022-09-03T02:12:15.938Z,17.30
2022-09-03T02:14:43.799Z,17.30
2022-09-03T02:17:11.496Z,17.20
2022-09-03T02:19:39.294Z,17.20
2022-09-03T02:22:06.575Z,17.20
2022-09-03T02:24:33.539Z,17.20
2022-09-03T02:27:01.029Z,17.20
2022-09-03T02:29:27.848Z,17.10
2022-09-03T02:31:54.862Z,17.10
2022-09-03T02:34:21.659Z,17.10
2022-09-03T02:36:48.424Z,17.10
2022-09-03T02:39:16.764Z,17.10
2022-09-03T02:41:44.545Z,17.10
2022-09-03T02:44:27.202Z,17.00
2022-09-03T02:47:02.708Z,17.00
2022-09-03T02:49:30.776Z,17.10
2022-09-03T02:52:01.438Z,17.00
2022-09-03T02:54:29.078Z,16.70
2022-09-03T02:56:55.828Z,16.90
2022-09-03T02:59:22.853Z,16.90
2022-09-03T03:01:50.122Z,16.90
2022-09-03T03:04:16.978Z,16.80
2022-09-03T03:06:43.769Z,16.80
2022-09-03T03:09:14.577Z,16.80
2022-09-03T03:11:41.318Z,16.80
2022-09-03T03:14:08.143Z,16.70
2022-09-03T03:16:35.185Z,16.80
2022-09-03T03:19:02.096Z,16.70
2022-09-03T03:21:28.985Z,16.70
2022-09-03T03:23:55.802Z,16.70
2022-09-03T03:26:24.151Z,16.70
2022-09-03T03:29:00.340Z,16.60
2022-09-03T03:31:27.844Z,16.60
2022-09-03T03:34:00.374Z,16.60
2022-09-03T03:36:31.352Z,16.60
2022-09-03T03:39:00.648Z,16.50
2022-09-03T03:41:34.691Z,16.60
2022-09-03T03:44:07.401Z,16.50
2022-09-03T03:46:40.661Z,16.50
2022-09-03T03:49:08.867Z,16.60
2022-09-03T03:51:37.955Z,16.50
2022-09-03T03:54:05.790Z,16.50
2022-09-03T03:56:33.686Z,16.50
2022-09-03T03:59:00.687Z,16.50
2022-09-03T04:01:29.188Z,16.50
2022-09-03T04:03:58.253Z,16.50
2022-09-03T04:06:25.011Z,16.50
2022-09-03T04:08:51.878Z,16.50
2022-09-03T04:11:22.873Z,16.60
2022-09-03T04:13:51.065Z,16.50
2022-09-03T04:16:21.430Z,16.60
2022-09-03T04:18:49.868Z,16.60
2022-09-03T04:21:28.412Z,16.60
2022-09-03T04:23:56.941Z,16.60
2022-09-03T04:26:32.800Z,16.60
2022-09-03T04:29:03.140Z,16.60
2022-09-03T04:31:31.814Z,16.60
2022-09-03T04:33:59.538Z,16.50
2022-09-03T04:36:29.649Z,16.50
2022-09-03T04:39:00.077Z,16.50
2022-09-03T04:41:30.042Z,16.50
2022-09-03T04:43:59.376Z,16.50
2022-09-03T04:46:33.619Z,16.50
2022-09-03T04:49:01.878Z,16.40
2022-09-03T04:51:32.952Z,16.40
2022-09-03T04:54:02.128Z,16.40
2022-09-03T04:56:35.374Z,16.40
2022-09-03T04:59:08.904Z,16.40
2022-09-03T05:01:38.999Z,16.40
2022-09-03T05:04:07.873Z,16.40
2022-09-03T05:06:36.854Z,16.40
2022-09-03T05:09:04.817Z,16.40
2022-09-03T05:11:31.656Z,16.50
2022-09-03T05:14:00.775Z,16.40
2022-09-03T05:16:30.147Z,16.50
2022-09-03T05:18:59.737Z,16.40
2022-09-03T05:21:28.589Z,16.50
2022-09-03T05:23:55.462Z,16.50
2022-09-03T05:26:26.642Z,16.50
2022-09-03T05:28:57.503Z,16.40
2022-09-03T05:31:28.239Z,16.40
2022-09-03T05:33:59.996Z,16.40
2022-09-03T05:36:32.086Z,16.40
2022-09-03T05:38:59.880Z,16.40
2022-09-03T05:41:28.948Z,16.40
2022-09-03T05:43:58.751Z,16.50
2022-09-03T05:46:33.094Z,16.50
2022-09-03T05:49:02.358Z,16.60
2022-09-03T05:51:30.986Z,16.60
2022-09-03T05:53:58.610Z,16.60
2022-09-03T05:56:30.053Z,16.60
2022-09-03T05:59:05.613Z,16.70
2022-09-03T06:01:51.647Z,16.70
2022-09-03T06:04:20.860Z,16.70
2022-09-03T06:06:48.641Z,16.60
2022-09-03T06:09:19.783Z,16.50
2022-09-03T06:11:50.230Z,16.70
2022-09-03T06:14:17.984Z,16.70
2022-09-03T06:16:49.585Z,16.80
2022-09-03T06:19:17.562Z,16.80
2022-09-03T06:21:46.322Z,16.90
2022-09-03T06:24:20.275Z,16.90
2022-09-03T06:26:47.220Z,17.00
2022-09-03T06:29:14.413Z,17.00
2022-09-03T06:31:41.368Z,17.10
2022-09-03T06:34:08.361Z,17.20
2022-09-03T06:36:35.207Z,17.20
2022-09-03T06:39:02.503Z,17.30
2022-09-03T06:41:35.418Z,17.40
2022-09-03T06:44:11.756Z,17.40
2022-09-03T06:46:42.737Z,17.50
2022-09-03T06:49:11.297Z,17.60
2022-09-03T06:51:39.297Z,17.70
2022-09-03T06:54:09.252Z,17.70
2022-09-03T06:56:40.581Z,17.90
2022-09-03T06:59:14.185Z,18.00
2022-09-03T07:01:45.438Z,18.00
2022-09-03T07:04:16.474Z,18.20
2022-09-03T07:06:45.299Z,18.20
2022-09-03T07:09:15.503Z,18.30
2022-09-03T07:11:48.010Z,18.50
2022-09-03T07:14:20.013Z,18.50
2022-09-03T07:16:49.233Z,18.70
2022-09-03T07:19:16.162Z,18.70
2022-09-03T07:21:48.823Z,18.80
2022-09-03T07:24:16.914Z,18.90
2022-09-03T07:26:47.441Z,19.00
2022-09-03T07:29:16.156Z,19.00
2022-09-03T07:31:44.174Z,19.10
2022-09-03T07:34:13.457Z,19.10
2022-09-03T07:36:46.852Z,19.30
2022-09-03T07:39:17.650Z,19.30
2022-09-03T07:41:46.435Z,19.30
2022-09-03T07:44:23.085Z,19.30
2022-09-03T07:46:51.142Z,19.40
2022-09-03T07:49:18.518Z,19.50
2022-09-03T07:51:46.594Z,19.50
2022-09-03T07:54:13.404Z,19.60
2022-09-03T07:56:41.153Z,19.60
2022-09-03T07:59:09.478Z,19.70
2022-09-03T08:01:39.190Z,19.80
2022-09-03T08:04:09.742Z,19.80
2022-09-03T08:06:38.708Z,19.90
2022-09-03T08:09:11.282Z,20.00
2022-09-03T08:11:41.571Z,20.20
2022-09-03T08:14:12.323Z,20.30
2022-09-03T08:16:47.290Z,20.30
2022-09-03T08:19:15.866Z,20.50
2022-09-03T08:21:42.707Z,20.70
2022-09-03T08:24:11.503Z,20.70
2022-09-03T08:26:46.244Z,20.80
2022-09-03T08:29:17.710Z,20.90
2022-09-03T08:31:44.611Z,21.00
2022-09-03T08:34:11.921Z,21.10
2022-09-03T08:36:41.409Z,21.10
2022-09-03T08:39:10.759Z,21.20
2022-09-03T08:42:09.990Z,21.40
2022-09-03T08:45:00.827Z,21.30
2022-09-03T08:47:48.684Z,21.30
2022-09-03T08:50:31.102Z,21.30
2022-09-03T08:53:22.512Z,21.30
2022-09-03T08:55:54.229Z,21.40
2022-09-03T08:58:26.184Z,21.40
2022-09-03T09:01:24.323Z,21.40
2022-09-03T09:04:21.505Z,21.40
2022-09-03T09:07:21.414Z,21.40
2022-09-03T09:10:12.762Z,21.40
2022-09-03T09:13:32.247Z,21.40
2022-09-03T09:16:02.011Z,21.50
2022-09-03T09:18:55.845Z,21.20
2022-09-03T09:21:36.112Z,21.50
2022-09-03T09:24:26.399Z,21.50
2022-09-03T09:27:04.650Z,21.60
2022-09-03T09:29:38.814Z,21.60
2022-09-03T09:32:12.176Z,21.70
2022-09-03T09:34:41.317Z,21.70
2022-09-03T09:37:15.559Z,21.80
2022-09-03T09:39:58.792Z,21.80
2022-09-03T09:42:27.279Z,21.90
2022-09-03T09:44:54.062Z,21.90
2022-09-03T09:47:31.584Z,22.00
2022-09-03T09:50:05.009Z,22.00
2022-09-03T09:52:32.111Z,22.10
2022-09-03T09:55:18.230Z,22.10
2022-09-03T09:57:45.848Z,22.20
2022-09-03T10:00:18.586Z,22.20
2022-09-03T10:02:56.568Z,22.30
2022-09-03T10:05:33.249Z,22.30
2022-09-03T10:08:06.764Z,22.40
2022-09-03T10:10:43.403Z,22.40
2022-09-03T10:13:19.345Z,22.50
2022-09-03T10:16:20.008Z,22.50
2022-09-03T10:19:35.788Z,22.60
2022-09-03T10:22:12.506Z,22.70
2022-09-03T10:25:02.517Z,22.70
2022-09-03T10:27:30.138Z,22.80
2022-09-03T10:30:00.716Z,22.90
2022-09-03T10:33:07.616Z,22.90
2022-09-03T10:36:06.900Z,23.00
2022-09-03T10:38:37.018Z,23.00
2022-09-03T10:41:55.794Z,23.10
2022-09-03T10:45:04.033Z,23.20
2022-09-03T10:48:00.112Z,23.20
2022-09-03T10:51:06.862Z,23.30
2022-09-03T10:54:01.146Z,23.40
2022-09-03T10:56:59.418Z,23.50
2022-09-03T10:59:41.384Z,23.60
2022-09-03T11:03:12.658Z,23.70
2022-09-03T11:05:49.094Z,23.80
2022-09-03T11:08:44.741Z,23.90
2022-09-03T11:11:22.785Z,24.00
2022-09-03T11:14:01.647Z,24.10
2022-09-03T11:16:46.463Z,24.20
2022-09-03T11:19:19.105Z,24.40
2022-09-03T11:21:48.847Z,24.40
2022-09-03T11:24:26.736Z,24.50
2022-09-03T11:27:30.121Z,24.60
2022-09-03T11:30:10.840Z,24.90
2022-09-03T11:32:42.924Z,24.80
2022-09-03T11:35:24.734Z,24.90
2022-09-03T11:38:06.194Z,24.80
2022-09-03T11:40:40.244Z,24.90
2022-09-03T11:43:08.611Z,25.00
2022-09-03T11:45:38.046Z,25.10
2022-09-03T11:48:40.205Z,25.10
2022-09-03T11:51:30.269Z,25.20
2022-09-03T11:54:21.087Z,25.20
2022-09-03T11:56:49.761Z,25.10
2022-09-03T11:59:25.334Z,25.00
2022-09-03T12:02:07.737Z,25.10
2022-09-03T12:04:47.309Z,25.00
2022-09-03T12:08:05.368Z,25.00
2022-09-03T12:11:03.076Z,25.10
2022-09-03T12:14:13.024Z,25.10
2022-09-03T12:17:19.570Z,25.10
2022-09-03T12:19:54.406Z,25.10
2022-09-03T12:22:28.907Z,25.10
2022-09-03T12:24:56.204Z,25.20
2022-09-03T12:27:26.529Z,25.20
2022-09-03T12:30:00.734Z,25.40
2022-09-03T12:32:32.485Z,25.40
2022-09-03T12:35:11.798Z,25.50
2022-09-03T12:40:29.992Z,25.60
2022-09-03T12:46:13.258Z,25.70
2022-09-03T12:49:29.989Z,25.70
2022-09-03T12:51:53.689Z,25.70
2022-09-03T12:54:23.265Z,25.90
2022-09-03T12:56:59.479Z,25.90
2022-09-03T12:59:32.215Z,26.00
2022-09-03T13:02:18.074Z,26.00
2022-09-03T13:04:47.478Z,26.10
2022-09-03T13:07:26.339Z,26.10
2022-09-03T13:10:04.408Z,26.10
2022-09-03T13:12:43.039Z,27.00
2022-09-03T13:15:19.921Z,26.00
2022-09-03T13:18:02.803Z,26.00
2022-09-03T13:20:54.585Z,25.90
2022-09-03T13:23:34.438Z,25.90
2022-09-03T13:26:28.790Z,25.90
2022-09-03T13:29:36.318Z,25.90
2022-09-03T13:32:25.552Z,25.80
2022-09-03T13:35:18.758Z,25.80
2022-09-03T13:37:53.340Z,25.90
2022-09-03T13:40:29.445Z,25.90
2022-09-03T13:43:19.739Z,25.90
2022-09-03T13:46:11.318Z,26.00
2022-09-03T13:49:03.763Z,26.10
2022-09-03T13:52:01.186Z,26.10
2022-09-03T13:54:48.852Z,26.10
2022-09-03T13:57:40.104Z,26.10
2022-09-03T14:00:11.464Z,26.10
2022-09-03T14:03:25.775Z,26.20
2022-09-03T14:06:11.647Z,26.20
2022-09-03T14:09:05.084Z,26.20
2022-09-03T14:12:06.387Z,26.30
2022-09-03T14:14:56.845Z,26.30
2022-09-03T14:17:46.398Z,26.40
2022-09-03T14:20:24.406Z,26.40
2022-09-03T14:23:20.636Z,26.50
2022-09-03T14:25:56.550Z,26.40
2022-09-03T14:28:34.773Z,26.50
2022-09-03T14:31:37.075Z,26.50
2022-09-03T14:34:22.194Z,26.50
2022-09-03T14:37:13.211Z,26.40
2022-09-03T14:39:59.257Z,26.40
2022-09-03T14:42:44.763Z,26.40
2022-09-03T14:46:06.344Z,26.40
2022-09-03T14:49:27.604Z,26.40
2022-09-03T14:52:39.458Z,26.50
2022-09-03T14:55:23.941Z,26.60
2022-09-03T14:58:25.059Z,26.60
2022-09-03T15:01:06.384Z,26.60
2022-09-03T15:04:14.078Z,26.50
2022-09-03T15:07:13.066Z,26.40
2022-09-03T15:10:00.849Z,26.30
2022-09-03T15:12:41.990Z,26.20
2022-09-03T15:15:19.518Z,26.10
2022-09-03T15:18:30.783Z,26.10
2022-09-03T15:21:48.554Z,25.90
2022-09-03T15:24:53.453Z,25.90
2022-09-03T15:28:10.472Z,25.90
2022-09-03T15:30:48.989Z,25.90
2022-09-03T15:33:40.480Z,25.90
2022-09-03T15:36:23.414Z,25.90
2022-09-03T15:39:23.291Z,25.90
2022-09-03T15:42:17.227Z,25.90
2022-09-03T15:44:54.930Z,25.80
2022-09-03T15:47:53.957Z,25.80
2022-09-03T15:51:03.138Z,25.80
2022-09-03T15:53:39.498Z,25.70
2022-09-03T15:56:36.820Z,25.70
2022-09-03T15:59:21.388Z,25.70
2022-09-03T16:02:11.051Z,25.70
2022-09-03T16:05:05.859Z,25.70
2022-09-03T16:08:08.113Z,25.70
2022-09-03T16:10:57.747Z,25.70
2022-09-03T16:14:07.069Z,25.70
2022-09-03T16:17:13.808Z,25.70
2022-09-03T16:19:52.461Z,25.70
2022-09-03T16:22:32.893Z,25.70
2022-09-03T16:25:23.147Z,25.60
2022-09-03T16:28:49.358Z,25.60
2022-09-03T16:31:45.217Z,25.50
2022-09-03T16:34:42.999Z,25.40
2022-09-03T16:37:34.750Z,25.40
2022-09-03T16:40:11.630Z,25.30
2022-09-03T16:43:29.989Z,25.20
2022-09-03T16:46:31.142Z,25.20
2022-09-03T16:49:07.190Z,25.10
2022-09-03T16:51:55.144Z,25.10
2022-09-03T16:54:55.937Z,25.00
2022-09-03T16:57:54.368Z,25.10
2022-09-03T17:00:22.087Z,24.90
2022-09-03T17:03:03.766Z,24.90
2022-09-03T17:05:46.663Z,24.90
2022-09-03T17:08:50.493Z,24.70
2022-09-03T17:11:40.006Z,24.80
2022-09-03T17:15:00.323Z,24.70
2022-09-03T17:17:56.090Z,24.70
2022-09-03T17:20:49.064Z,24.60
2022-09-03T17:23:53.888Z,24.50
2022-09-03T17:27:01.181Z,24.50
2022-09-03T17:30:03.334Z,24.50
2022-09-03T17:33:27.503Z,24.50
2022-09-03T17:36:14.459Z,24.40
2022-09-03T17:39:23.597Z,24.40
2022-09-03T17:41:59.389Z,24.30
2022-09-03T17:44:50.096Z,24.30
2022-09-03T17:47:56.071Z,24.30
2022-09-03T17:50:43.714Z,24.20
2022-09-03T17:53:29.563Z,24.10
2022-09-03T17:56:21.346Z,24.10
2022-09-03T17:59:03.662Z,24.00
2022-09-03T18:01:37.855Z,23.90
2022-09-03T18:04:38.134Z,23.90
2022-09-03T18:07:41.092Z,23.80
2022-09-03T18:10:19.842Z,23.80
2022-09-03T18:13:03.658Z,23.70
2022-09-03T18:15:57.490Z,23.60
2022-09-03T18:18:30.909Z,23.60
2022-09-03T18:21:25.402Z,23.60
2022-09-03T18:24:50.845Z,23.50
2022-09-03T18:27:52.026Z,23.40
2022-09-03T18:30:38.170Z,23.40
2022-09-03T18:33:23.824Z,23.40
2022-09-03T18:36:09.079Z,23.30
2022-09-03T18:38:57.667Z,23.30
2022-09-03T18:41:57.814Z,23.30
2022-09-03T18:45:20.798Z,23.20
2022-09-03T18:48:31.840Z,23.20
2022-09-03T18:51:31.687Z,23.20
2022-09-03T18:55:07.251Z,23.20
2022-09-03T18:58:33.718Z,23.10
2022-09-03T19:01:37.646Z,23.10
2022-09-03T19:04:51.940Z,23.10
2022-09-03T19:07:59.999Z,23.10
2022-09-03T19:11:01.121Z,23.00
2022-09-03T19:13:53.784Z,23.00
2022-09-03T19:17:20.463Z,22.90
2022-09-03T19:20:48.664Z,23.00
2022-09-03T19:23:34.152Z,22.90
2022-09-03T19:26:45.265Z,22.90
2022-09-03T19:29:56.578Z,22.90
2022-09-03T19:33:02.630Z,22.90
2022-09-03T19:36:24.334Z,22.90
2022-09-03T19:39:54.492Z,22.80
2022-09-03T19:43:04.163Z,22.80
2022-09-03T19:46:16.500Z,22.80
2022-09-03T19:49:35.298Z,22.80
2022-09-03T19:52:47.708Z,22.80
2022-09-03T19:55:43.032Z,22.70
2022-09-03T19:58:43.153Z,22.70
2022-09-03T20:01:31.519Z,22.60
2022-09-03T20:04:31.710Z,22.70
2022-09-03T20:07:21.916Z,22.70
2022-09-03T20:10:09.978Z,22.60
2022-09-03T20:12:45.406Z,22.60
2022-09-03T20:15:12.310Z,22.60
2022-09-03T20:18:03.991Z,22.60
2022-09-03T20:20:52.008Z,22.60
2022-09-03T20:23:57.755Z,22.60
2022-09-03T20:26:40.629Z,22.60
2022-09-03T20:29:54.649Z,22.50
2022-09-03T20:33:13.922Z,22.50
2022-09-03T20:36:01.826Z,22.50
2022-09-03T20:39:11.394Z,22.50
2022-09-03T20:42:26.847Z,22.40
2022-09-03T20:45:21.570Z,22.40
2022-09-03T20:48:06.328Z,22.40
2022-09-03T20:51:13.109Z,22.40
2022-09-03T20:54:09.530Z,22.40
2022-09-03T20:56:46.635Z,22.30
2022-09-03T21:00:10.146Z,22.30
2022-09-03T21:03:02.954Z,22.20
2022-09-03T21:05:51.522Z,22.30
2022-09-03T21:08:53.877Z,22.20
2022-09-03T21:12:30.914Z,22.20
2022-09-03T21:15:15.386Z,22.20
2022-09-03T21:18:14.919Z,22.10
2022-09-03T21:21:10.359Z,22.10
2022-09-03T21:23:44.745Z,22.10
2022-09-03T21:26:29.862Z,22.00
2022-09-03T21:29:42.281Z,22.00
2022-09-03T21:32:24.822Z,22.00
2022-09-03T21:35:28.234Z,22.00
2022-09-03T21:38:13.165Z,22.00
2022-09-03T21:40:59.916Z,21.90
2022-09-03T21:43:42.486Z,21.90
2022-09-03T21:46:26.864Z,21.90
2022-09-03T21:49:02.500Z,21.90
2022-09-03T21:52:07.735Z,21.90
2022-09-03T21:54:35.372Z,21.90
2022-09-03T21:57:12.424Z,21.80
2022-09-03T21:59:54.126Z,21.80
2022-09-03T22:02:29.038Z,21.80
2022-09-03T22:04:58.376Z,21.70
2022-09-03T22:07:54.633Z,21.80
2022-09-03T22:10:46.867Z,21.70
2022-09-03T22:13:31.549Z,21.70
2022-09-03T22:16:42.566Z,21.60
2022-09-03T22:19:09.550Z,21.60
2022-09-03T22:21:58.347Z,21.60
2022-09-03T22:25:07.149Z,21.60
2022-09-03T22:27:54.572Z,21.40
2022-09-03T22:30:21.613Z,21.40
2022-09-03T22:33:18.827Z,21.30
2022-09-03T22:36:20.130Z,21.30
2022-09-03T22:39:12.344Z,21.30
2022-09-03T22:42:26.201Z,21.20
2022-09-03T22:45:33.440Z,21.20
2022-09-03T22:49:06.529Z,21.10
2022-09-03T22:52:08.307Z,21.00
2022-09-03T22:54:50.753Z,21.00
2022-09-03T22:57:21.547Z,21.00
2022-09-03T23:00:07.029Z,20.90
2022-09-03T23:02:34.417Z,20.90
2022-09-03T23:05:18.328Z,20.90
2022-09-03T23:07:57.442Z,20.90
2022-09-03T23:10:42.847Z,21.00
2022-09-03T23:13:33.008Z,20.90
2022-09-03T23:16:11.450Z,20.90
2022-09-03T23:18:44.616Z,20.90
2022-09-03T23:21:22.434Z,20.90
2022-09-03T23:24:05.675Z,20.80
2022-09-03T23:26:41.811Z,20.80
2022-09-03T23:29:37.248Z,20.80
2022-09-03T23:32:05.280Z,20.70
2022-09-03T23:34:33.215Z,20.70
2022-09-03T23:37:33.067Z,20.70
2022-09-03T23:40:48.913Z,20.50
2022-09-03T23:43:47.266Z,20.60
2022-09-03T23:46:51.522Z,20.50
2022-09-03T23:50:07.751Z,20.50
2022-09-03T23:52:56.041Z,20.40
2022-09-03T23:55:56.030Z,20.40
2022-09-03T23:58:56.627Z,20.30
